• Join FlightAware (Why Join?)
  • Login
  • US Flag 
01:21PM EST


 

Airport Tracker/Info


-or-


 

Live Flight TrackerFlight Track Log ✈ N682RW ✈ 04-Jul-2013 ✈ CYYZ - KBKL

Flight Track Log - Related Links

Times and Time Zones

All times are in EDT time to prevent confusion due to time zone crossing. See the N682RW flight status page for this flight to view local times or setup timezone preferences in your user account.

Time Position Orientation Groundspeed Altitude Reporting Facility
EDT Latitude Longitude Course Direction KTS MPH feet Rate Location/Type
12:18AM 43.6667 -79.6500 241° Southwest 160 184 2,100  Level Toronto Center
12:19AM 43.6333 -79.7333 241° Southwest 200 230 4,300 2,580 Climbing Toronto Center
12:20AM 43.5833 -79.8000 224° Southwest 260 299 7,300 3,000 Climbing Toronto Center
12:21AM 43.5333 -79.8333 206° Southwest 270 311 10,400 2,760 Climbing Toronto Center
12:22AM 43.4333 -79.8667 194° South 310 357 12,900 2,460 Climbing Toronto Center
12:23AM 43.3500 -79.8833 188° South 330 380 15,400 2,400 Climbing Toronto Center
12:24AM 43.2667 -79.9000 188° South 330 380 17,800 2,100 Climbing Toronto Center
12:25AM 43.1667 -79.9333 194° South 350 403 19,700 1,080 Climbing Toronto Center
12:26AM 43.0667 -79.9833 200° South 360 414 20,000 120 Climbing Toronto Center
12:27AM 42.9667 -80.0000 187° South 360 414 20,000  Level Toronto Center
12:28AM 42.8667 -80.0167 187° South 360 414 20,000  Level Toronto Center
12:29AM 42.7667 -80.0667 200° South 360 414 20,000  Level Toronto Center
12:30AM 42.7000 -80.1500 223° Southwest 360 414 20,000  Level Toronto Center
12:31AM 42.6333 -80.2500 228° Southwest 360 414 20,000  Level Toronto Center
12:32AM 42.5500 -80.3333 216° Southwest 360 414 20,000  Level Toronto Center
12:33AM 42.4833 -80.4167 223° Southwest 360 414 20,000 -600 Level Toronto Center
12:34AM 42.4167 -80.5167 228° Southwest 360 414 18,800 -1,560 Descending Toronto Center
12:35AM 42.3500 -80.6000 223° Southwest 350 403 16,900 -2,100 Descending Toronto Center
12:36AM 42.2833 -80.7000 228° Southwest 330 380 14,700 -2,160 Descending Toronto Center
12:37AM 42.2167 -80.7667 217° Southwest 320 368 12,600 -1,860 Descending Toronto Center
12:38AM 42.1333 -80.8500 217° Southwest 310 357 11,000 -960 Descending Toronto Center
12:39AM 42.1094 -80.9189 245° Southwest 291 335 11,000  Level Cleveland Center
12:39AM 42.0739 -80.9608 221° Southwest 301 346 11,000  Level Cleveland Center
12:40AM 42.0447 -80.9969 223° Southwest 275 316 11,000 -900 Level Cleveland Center
12:41AM 41.9903 -81.0608 221° Southwest 258 297 9,600 -1,500 Descending Cleveland Center
12:42AM 41.9419 -81.1331 228° Southwest 259 298 8,000 -1,500 Descending Cleveland Center
12:43AM 41.8936 -81.1997 226° Southwest 248 285 6,600 -1,140 Descending Cleveland Center
12:44AM 41.8453 -81.2661 226° Southwest 230 265 5,800 -1,080 Descending Cleveland Center
12:45AM 41.8053 -81.3297 230° Southwest 223 257 4,500 -1,380 Descending Cleveland Center
12:46AM 41.7550 -81.3736 213° Southwest 226 260 3,100 -780 Descending Cleveland Center
12:47AM 41.6964 -81.4119 206° Southwest 231 266 3,000 -60 Descending Cleveland Center
12:48AM 41.6378 -81.4472 204° Southwest 233 268 3,000  Level Cleveland Center
12:49AM 41.6083 -81.4967 231° Southwest 161 185 3,000 -120 Level Cleveland Center
12:50AM 41.5828 -81.5436 234° Southwest 151 174 2,800 -420 Descending Cleveland Center
12:51AM 41.5636 -81.5822 236° Southwest 125 144 2,200 -660 Descending Cleveland Center
12:52AM 41.5444 -81.6236 238° Southwest 127 146 1,500 -720 Descending Cleveland Center
12:53AM 41.5253 -81.6675 240° Southwest 127 146 800 -720 Descending Cleveland Center
12:55AM 41.5167 -81.6667 228° Southwest  Level FlightAware Approximate